createdAt,value
2022-11-05T00:00:33.554Z,1.40
2022-11-05T00:04:14.802Z,1.60
2022-11-05T00:07:58.694Z,1.73
2022-11-05T00:11:44.157Z,1.50
2022-11-05T00:15:26.036Z,1.50
2022-11-05T00:19:06.337Z,1.43
2022-11-05T00:22:47.908Z,1.60
2022-11-05T00:26:13.518Z,1.60
2022-11-05T00:29:38.612Z,1.40
2022-11-05T00:33:03.578Z,1.10
2022-11-05T00:36:27.382Z,1.33
2022-11-05T00:39:51.164Z,1.20
2022-11-05T00:43:32.512Z,1.30
2022-11-05T00:47:11.498Z,1.30
2022-11-05T00:50:36.248Z,1.00
2022-11-05T00:53:59.997Z,0.90
2022-11-05T00:57:23.442Z,0.93
2022-11-05T01:00:51.130Z,1.00
2022-11-05T01:04:16.158Z,1.00
2022-11-05T01:07:39.949Z,0.90
2022-11-05T01:11:10.540Z,1.10
2022-11-05T01:14:34.357Z,1.33
2022-11-05T01:17:58.121Z,1.23
2022-11-05T01:21:23.325Z,1.00
2022-11-05T01:24:47.306Z,1.33
2022-11-05T01:28:11.422Z,1.50
2022-11-05T01:31:35.202Z,1.40
2022-11-05T01:34:58.653Z,1.20
2022-11-05T01:38:23.844Z,1.47
2022-11-05T01:41:47.697Z,1.40
2022-11-05T01:45:17.589Z,1.13
2022-11-05T01:48:41.521Z,1.40
2022-11-05T01:52:06.246Z,1.07
2022-11-05T01:55:35.733Z,0.90
2022-11-05T01:59:03.597Z,1.00
2022-11-05T02:02:27.881Z,1.07
2022-11-05T02:05:54.104Z,0.90
2022-11-05T02:09:23.364Z,0.90
2022-11-05T02:12:49.441Z,0.90
2022-11-05T02:16:23.975Z,1.20
2022-11-05T02:20:19.885Z,0.90
2022-11-05T02:24:06.015Z,0.73
2022-11-05T02:28:16.016Z,0.90
2022-11-05T02:31:48.749Z,0.80
2022-11-05T02:35:27.191Z,0.80
2022-11-05T02:39:02.873Z,0.93
2022-11-05T02:42:37.273Z,0.80
2022-11-05T02:46:14.870Z,0.70
2022-11-05T02:49:52.901Z,0.80
2022-11-05T02:53:23.005Z,0.90
2022-11-05T02:56:49.243Z,1.00
2022-11-05T03:00:50.382Z,0.80
2022-11-05T03:04:16.380Z,1.00
2022-11-05T03:07:51.400Z,0.93
2022-11-05T03:11:17.479Z,0.80
2022-11-05T03:14:46.572Z,0.80
2022-11-05T03:18:16.250Z,0.97
2022-11-05T03:21:47.390Z,0.80
2022-11-05T03:25:16.862Z,1.00
2022-11-05T03:28:46.403Z,0.80
2022-11-05T03:32:12.924Z,0.80
2022-11-05T03:35:42.767Z,0.90
2022-11-05T03:39:09.805Z,0.93
2022-11-05T03:42:37.989Z,0.90
2022-11-05T03:46:07.210Z,0.70
2022-11-05T03:49:35.861Z,0.70
2022-11-05T03:53:05.345Z,0.80
2022-11-05T03:56:35.241Z,1.00
2022-11-05T04:00:00.065Z,0.90
2022-11-05T04:03:23.712Z,0.83
2022-11-05T04:07:05.130Z,0.80
2022-11-05T04:10:46.760Z,0.90
2022-11-05T04:14:10.525Z,1.00
2022-11-05T04:17:35.698Z,1.00
2022-11-05T04:21:16.889Z,1.03
2022-11-05T04:24:40.656Z,0.90
2022-11-05T04:28:04.077Z,1.00
2022-11-05T04:31:26.848Z,0.93
2022-11-05T04:34:51.950Z,0.80
2022-11-05T04:38:17.837Z,1.00
2022-11-05T04:41:41.596Z,1.10
2022-11-05T04:45:05.903Z,1.00
2022-11-05T04:48:30.033Z,0.90
2022-11-05T04:51:55.156Z,1.10
2022-11-05T04:55:19.264Z,0.87
2022-11-05T04:58:43.534Z,0.93
2022-11-05T05:02:07.329Z,1.00
2022-11-05T05:05:31.288Z,1.10
2022-11-05T05:08:56.499Z,0.93
2022-11-05T05:12:20.463Z,1.00
2022-11-05T05:15:44.021Z,1.07
2022-11-05T05:19:07.826Z,0.83
2022-11-05T05:22:31.587Z,0.90
2022-11-05T05:25:59.208Z,0.83
2022-11-05T05:29:22.611Z,0.90
2022-11-05T05:32:46.415Z,0.80
2022-11-05T05:36:11.598Z,1.03
2022-11-05T05:39:35.506Z,1.20
2022-11-05T05:43:00.609Z,1.63
2022-11-05T05:46:24.384Z,1.70
2022-11-05T05:49:49.921Z,1.70
2022-11-05T05:53:13.578Z,1.77
2022-11-05T05:56:37.210Z,2.40
2022-11-05T06:00:02.054Z,1.87
2022-11-05T06:03:36.055Z,2.83
2022-11-05T06:06:59.527Z,4.27
2022-11-05T06:10:23.352Z,5.00
2022-11-05T06:13:47.162Z,4.33
2022-11-05T06:17:12.352Z,5.90
2022-11-05T06:20:35.778Z,5.93
2022-11-05T06:24:01.106Z,5.70
2022-11-05T06:27:24.938Z,6.60
2022-11-05T06:30:52.665Z,5.53
2022-11-05T06:34:17.781Z,5.70
2022-11-05T06:37:41.737Z,7.80
2022-11-05T06:41:10.315Z,6.50
2022-11-05T06:44:34.594Z,7.60
2022-11-05T06:47:59.507Z,7.47
2022-11-05T06:51:24.961Z,6.83
2022-11-05T06:54:49.809Z,7.30
2022-11-05T06:58:13.609Z,7.60
2022-11-05T07:01:37.503Z,6.03
2022-11-05T07:05:01.334Z,6.90
2022-11-05T07:08:26.495Z,6.27
2022-11-05T07:11:50.354Z,7.90
2022-11-05T07:15:14.354Z,7.03
2022-11-05T07:18:39.090Z,5.70
2022-11-05T07:22:04.327Z,9.07
2022-11-05T07:25:29.755Z,6.90
2022-11-05T07:28:53.557Z,6.73
2022-11-05T07:32:17.367Z,6.67
2022-11-05T07:35:41.148Z,8.17
2022-11-05T07:39:05.107Z,7.43
2022-11-05T07:42:30.322Z,9.37
2022-11-05T07:45:57.308Z,10.07
2022-11-05T07:49:21.375Z,7.63
2022-11-05T07:52:45.503Z,7.30
2022-11-05T07:56:09.599Z,8.83
2022-11-05T07:59:34.755Z,9.33
2022-11-05T08:03:06.783Z,15.70
2022-11-05T08:06:32.333Z,9.67
2022-11-05T08:09:55.780Z,8.70
2022-11-05T08:13:19.948Z,7.87
2022-11-05T08:16:45.065Z,9.63
2022-11-05T08:20:09.864Z,7.10
2022-11-05T08:23:34.502Z,8.73
2022-11-05T08:26:58.333Z,7.63
2022-11-05T08:30:22.090Z,8.10
2022-11-05T08:33:47.245Z,6.83
2022-11-05T08:37:11.372Z,4.83
2022-11-05T08:40:36.914Z,4.60
2022-11-05T08:44:00.759Z,4.43
2022-11-05T08:47:25.160Z,3.50
2022-11-05T08:50:51.690Z,2.90
2022-11-05T08:54:15.546Z,3.23
2022-11-05T08:57:39.441Z,4.03
2022-11-05T09:01:05.983Z,3.20
2022-11-05T09:04:29.659Z,3.00
2022-11-05T09:08:00.502Z,2.90
2022-11-05T09:11:43.025Z,2.60
2022-11-05T09:15:10.464Z,2.80
2022-11-05T09:18:35.289Z,2.97
2022-11-05T09:22:02.381Z,2.43
2022-11-05T09:25:27.747Z,2.43
2022-11-05T09:28:51.569Z,2.43
2022-11-05T09:32:18.448Z,2.90
2022-11-05T09:35:43.045Z,3.67
2022-11-05T09:39:07.143Z,3.97
2022-11-05T09:42:38.515Z,4.80
2022-11-05T09:46:09.039Z,4.30
2022-11-05T09:49:39.871Z,4.03
2022-11-05T09:53:04.987Z,4.63
2022-11-05T09:56:31.711Z,5.10
2022-11-05T10:00:00.185Z,5.13
2022-11-05T10:03:25.582Z,6.73
2022-11-05T10:06:55.746Z,5.60
2022-11-05T10:10:40.526Z,5.30
2022-11-05T10:14:14.805Z,7.23
2022-11-05T10:17:43.448Z,6.73
2022-11-05T10:21:08.465Z,7.40
2022-11-05T10:24:32.310Z,7.97
2022-11-05T10:27:58.683Z,8.10
2022-11-05T10:31:24.487Z,8.60
2022-11-05T10:34:50.691Z,6.70
2022-11-05T10:38:15.951Z,7.10
2022-11-05T10:41:52.553Z,6.03
2022-11-05T10:45:27.159Z,7.23
2022-11-05T10:49:07.808Z,6.10
2022-11-05T10:52:37.008Z,6.97
2022-11-05T10:56:01.119Z,5.90
2022-11-05T10:59:27.462Z,6.23
2022-11-05T11:02:52.878Z,6.17
2022-11-05T11:06:25.256Z,5.97
2022-11-05T11:09:52.265Z,5.73
2022-11-05T11:13:24.056Z,6.67
2022-11-05T11:16:50.299Z,5.40
2022-11-05T11:20:23.682Z,5.73
2022-11-05T11:23:56.798Z,5.17
2022-11-05T11:27:26.683Z,5.30
2022-11-05T11:30:55.056Z,5.40
2022-11-05T11:34:24.809Z,4.73
2022-11-05T11:37:49.847Z,5.33
2022-11-05T11:41:28.865Z,5.27
2022-11-05T11:44:54.369Z,4.57
2022-11-05T11:48:23.848Z,5.00
2022-11-05T11:51:50.199Z,5.30
2022-11-05T11:55:22.819Z,3.53
2022-11-05T11:58:49.325Z,3.87
2022-11-05T12:02:55.975Z,4.43
2022-11-05T12:06:34.666Z,5.00
2022-11-05T12:10:12.367Z,4.87
2022-11-05T12:13:59.617Z,5.73
2022-11-05T12:17:40.861Z,5.80
2022-11-05T12:21:15.434Z,5.53
2022-11-05T12:25:00.671Z,4.87
2022-11-05T12:29:17.387Z,4.17
2022-11-05T12:32:50.557Z,4.23
2022-11-05T12:36:23.423Z,5.10
2022-11-05T12:40:07.820Z,4.77
2022-11-05T12:43:42.829Z,3.90
2022-11-05T12:47:24.411Z,3.90
2022-11-05T12:50:59.265Z,3.90
2022-11-05T12:54:44.550Z,3.60
2022-11-05T12:58:17.068Z,4.43
2022-11-05T13:01:48.616Z,4.50
2022-11-05T13:05:19.543Z,4.00
2022-11-05T13:08:52.411Z,4.80
2022-11-05T13:12:20.910Z,4.07
2022-11-05T13:15:52.705Z,4.10
2022-11-05T13:19:21.247Z,2.93
2022-11-05T13:22:48.841Z,3.50
2022-11-05T13:26:19.981Z,3.67
2022-11-05T13:29:51.075Z,3.50
2022-11-05T13:33:18.942Z,4.37
2022-11-05T13:37:11.035Z,4.37
2022-11-05T13:40:45.687Z,4.67
2022-11-05T13:44:34.874Z,4.40
2022-11-05T13:48:32.816Z,4.50
2022-11-05T13:51:58.900Z,4.37
2022-11-05T13:55:46.441Z,3.87
2022-11-05T13:59:42.418Z,4.83
2022-11-05T14:03:17.860Z,4.03
2022-11-05T14:06:41.645Z,3.60
2022-11-05T14:10:20.850Z,3.80
2022-11-05T14:13:46.999Z,4.23
2022-11-05T14:17:27.641Z,3.77
2022-11-05T14:21:30.338Z,4.27
2022-11-05T14:24:54.210Z,4.47
2022-11-05T14:28:49.047Z,3.60
2022-11-05T14:32:28.845Z,3.80
2022-11-05T14:35:53.559Z,3.90
2022-11-05T14:39:23.838Z,2.63
2022-11-05T14:42:52.614Z,3.17
2022-11-05T14:46:17.072Z,2.90
2022-11-05T14:49:53.977Z,3.37
2022-11-05T14:53:33.130Z,2.70
2022-11-05T14:56:59.604Z,2.40
2022-11-05T15:00:43.376Z,2.20
2022-11-05T15:04:26.166Z,3.90
2022-11-05T15:07:58.325Z,2.80
2022-11-05T15:11:29.968Z,2.43
2022-11-05T15:14:59.878Z,2.40
2022-11-05T15:18:32.582Z,3.60
2022-11-05T15:22:01.821Z,3.00
2022-11-05T15:25:35.006Z,2.73
2022-11-05T15:28:59.212Z,3.40
2022-11-05T15:32:26.544Z,3.30
2022-11-05T15:35:50.356Z,3.50
2022-11-05T15:39:40.615Z,3.30
2022-11-05T15:43:20.624Z,3.07
2022-11-05T15:46:44.026Z,2.80
2022-11-05T15:50:15.959Z,2.60
2022-11-05T15:54:29.197Z,3.43
2022-11-05T15:57:50.635Z,2.70
2022-11-05T16:01:27.977Z,2.50
2022-11-05T16:04:52.790Z,2.00
2022-11-05T16:08:21.951Z,2.10
2022-11-05T16:11:45.756Z,2.67
2022-11-05T16:15:23.300Z,2.83
2022-11-05T16:18:48.683Z,3.50
2022-11-05T16:22:12.491Z,3.67
2022-11-05T16:25:41.593Z,2.87
2022-11-05T16:29:13.320Z,2.80
2022-11-05T16:32:36.755Z,2.40
2022-11-05T16:36:02.062Z,1.93
2022-11-05T16:39:26.482Z,2.10
2022-11-05T16:42:51.931Z,2.93
2022-11-05T16:46:15.877Z,2.87
2022-11-05T16:49:39.554Z,2.80
2022-11-05T16:53:04.376Z,2.70
2022-11-05T16:56:27.933Z,2.30
2022-11-05T16:59:51.484Z,2.70
2022-11-05T17:03:14.844Z,3.20
2022-11-05T17:06:38.299Z,2.70
2022-11-05T17:10:03.519Z,2.80
2022-11-05T17:13:27.130Z,2.23
2022-11-05T17:16:50.942Z,2.97
2022-11-05T17:20:27.290Z,3.00
2022-11-05T17:23:51.156Z,2.50
2022-11-05T17:27:16.225Z,2.17
2022-11-05T17:30:41.753Z,2.30
2022-11-05T17:34:05.848Z,2.77
2022-11-05T17:37:29.695Z,2.27
2022-11-05T17:40:53.930Z,1.90
2022-11-05T17:44:19.112Z,2.37
2022-11-05T17:47:43.157Z,2.00
2022-11-05T17:51:10.201Z,2.40
2022-11-05T17:54:33.958Z,2.23
2022-11-05T17:57:57.832Z,2.50
2022-11-05T18:01:28.030Z,1.90
2022-11-05T18:04:52.152Z,2.10
2022-11-05T18:08:15.961Z,2.37
2022-11-05T18:11:40.354Z,2.43
2022-11-05T18:15:04.308Z,2.07
2022-11-05T18:18:29.228Z,2.37
2022-11-05T18:21:53.041Z,2.37
2022-11-05T18:25:17.202Z,2.37
2022-11-05T18:28:41.431Z,2.30
2022-11-05T18:32:05.812Z,2.50
2022-11-05T18:35:31.135Z,2.97
2022-11-05T18:38:55.395Z,2.97
2022-11-05T18:42:19.051Z,2.60
2022-11-05T18:45:42.913Z,2.97
2022-11-05T18:49:06.781Z,2.07
2022-11-05T18:52:32.778Z,2.17
2022-11-05T18:55:56.558Z,2.90
2022-11-05T18:59:38.619Z,2.90
2022-11-05T19:03:03.112Z,2.40
2022-11-05T19:06:27.272Z,1.70
2022-11-05T19:09:52.368Z,5.37
2022-11-05T19:13:15.781Z,2.17
2022-11-05T19:16:39.575Z,2.53
2022-11-05T19:20:05.663Z,1.90
2022-11-05T19:23:32.272Z,2.60
2022-11-05T19:26:57.680Z,2.47
2022-11-05T19:30:21.522Z,2.83
2022-11-05T19:33:46.044Z,4.17
2022-11-05T19:37:10.106Z,2.93
2022-11-05T19:40:33.976Z,2.70
2022-11-05T19:44:01.513Z,3.30
2022-11-05T19:47:25.550Z,3.20
2022-11-05T19:50:49.581Z,3.10
2022-11-05T19:54:14.982Z,3.70
2022-11-05T19:57:38.861Z,3.50
2022-11-05T20:01:04.405Z,3.20
2022-11-05T20:04:28.437Z,2.87
2022-11-05T20:07:53.194Z,3.30
2022-11-05T20:11:18.536Z,3.47
2022-11-05T20:14:42.417Z,2.60
2022-11-05T20:18:08.241Z,3.40
2022-11-05T20:21:31.854Z,3.83
2022-11-05T20:24:55.700Z,3.37
2022-11-05T20:28:19.658Z,3.97
2022-11-05T20:31:43.496Z,3.50
2022-11-05T20:35:09.842Z,3.33
2022-11-05T20:38:34.224Z,3.30
2022-11-05T20:42:00.333Z,3.57
2022-11-05T20:45:24.187Z,3.40
2022-11-05T20:48:48.123Z,4.40
2022-11-05T20:52:16.678Z,4.07
2022-11-05T20:55:44.694Z,3.30
2022-11-05T20:59:08.538Z,3.67
2022-11-05T21:02:32.028Z,3.97
2022-11-05T21:05:59.808Z,3.37
2022-11-05T21:09:24.994Z,4.30
2022-11-05T21:12:48.891Z,4.33
2022-11-05T21:16:17.866Z,3.50
2022-11-05T21:19:42.173Z,4.10
2022-11-05T21:23:05.969Z,3.93
2022-11-05T21:26:33.525Z,8.30
2022-11-05T21:29:57.403Z,5.10
2022-11-05T21:33:21.258Z,5.57
2022-11-05T21:36:45.113Z,4.07
2022-11-05T21:40:10.166Z,3.93
2022-11-05T21:43:35.878Z,3.60
2022-11-05T21:47:00.434Z,4.00
2022-11-05T21:50:45.165Z,4.37
2022-11-05T21:54:27.870Z,3.73
2022-11-05T21:58:09.617Z,4.50
2022-11-05T22:01:35.455Z,4.67
2022-11-05T22:05:00.105Z,5.27
2022-11-05T22:08:24.165Z,3.90
2022-11-05T22:11:48.204Z,4.07
2022-11-05T22:15:12.872Z,3.80
2022-11-05T22:18:37.907Z,5.37
2022-11-05T22:22:03.552Z,4.40
2022-11-05T22:25:27.479Z,4.63
2022-11-05T22:28:54.262Z,4.40
2022-11-05T22:32:18.759Z,5.33
2022-11-05T22:35:44.309Z,5.63
2022-11-05T22:39:11.696Z,4.70
2022-11-05T22:42:37.250Z,4.27
2022-11-05T22:46:05.689Z,4.87
2022-11-05T22:49:29.349Z,5.40
2022-11-05T22:52:54.602Z,4.87
2022-11-05T22:56:20.815Z,5.00
2022-11-05T22:59:44.643Z,4.50
2022-11-05T23:03:10.693Z,5.30
2022-11-05T23:06:52.721Z,5.10
2022-11-05T23:10:35.042Z,6.10
2022-11-05T23:13:58.892Z,5.07
2022-11-05T23:17:52.146Z,4.77
2022-11-05T23:21:33.007Z,4.47
2022-11-05T23:24:56.467Z,5.90
2022-11-05T23:28:21.780Z,4.80
2022-11-05T23:32:03.054Z,4.60
2022-11-05T23:35:40.559Z,4.37
2022-11-05T23:39:04.426Z,5.30
2022-11-05T23:42:46.309Z,4.47
2022-11-05T23:46:28.917Z,5.77
2022-11-05T23:49:52.670Z,4.03
2022-11-05T23:53:16.833Z,4.80
2022-11-05T23:56:40.590Z,4.77
